sensor_id;sensor_type;location;lat;lon;timestamp;P1;durP1;ratioP1;P2;durP2;ratioP2
67514;SDS011;60646;55.802;37.032;2023-05-28T00:01:20;1.23;;;0.77;;
67514;SDS011;60646;55.802;37.032;2023-05-28T00:03:46;0.90;;;0.60;;
67514;SDS011;60646;55.802;37.032;2023-05-28T00:06:11;2.75;;;0.90;;
67514;SDS011;60646;55.802;37.032;2023-05-28T00:08:37;1.33;;;0.70;;
67514;SDS011;60646;55.802;37.032;2023-05-28T00:11:04;2.08;;;0.80;;
67514;SDS011;60646;55.802;37.032;2023-05-28T00:13:29;1.50;;;0.70;;
67514;SDS011;60646;55.802;37.032;2023-05-28T00:15:55;1.10;;;0.73;;
67514;SDS011;60646;55.802;37.032;2023-05-28T00:18:21;2.38;;;1.10;;
67514;SDS011;60646;55.802;37.032;2023-05-28T00:20:49;0.77;;;0.70;;
67514;SDS011;60646;55.802;37.032;2023-05-28T00:23:15;0.90;;;0.70;;
67514;SDS011;60646;55.802;37.032;2023-05-28T00:25:42;1.77;;;0.75;;
67514;SDS011;60646;55.802;37.032;2023-05-28T00:28:08;2.13;;;0.70;;
67514;SDS011;60646;55.802;37.032;2023-05-28T00:30:34;3.08;;;1.00;;
67514;SDS011;60646;55.802;37.032;2023-05-28T00:33:01;1.15;;;0.73;;
67514;SDS011;60646;55.802;37.032;2023-05-28T00:35:27;2.55;;;0.88;;
67514;SDS011;60646;55.802;37.032;2023-05-28T00:37:53;0.95;;;0.70;;
67514;SDS011;60646;55.802;37.032;2023-05-28T00:40:19;0.93;;;0.60;;
67514;SDS011;60646;55.802;37.032;2023-05-28T00:42:45;0.55;;;0.50;;
67514;SDS011;60646;55.802;37.032;2023-05-28T00:45:12;1.00;;;0.70;;
67514;SDS011;60646;55.802;37.032;2023-05-28T00:47:39;2.25;;;0.60;;
67514;SDS011;60646;55.802;37.032;2023-05-28T00:50:06;1.05;;;0.70;;
67514;SDS011;60646;55.802;37.032;2023-05-28T00:52:33;4.25;;;0.70;;
67514;SDS011;60646;55.802;37.032;2023-05-28T00:55:00;0.70;;;0.60;;
67514;SDS011;60646;55.802;37.032;2023-05-28T00:57:29;2.28;;;0.60;;
67514;SDS011;60646;55.802;37.032;2023-05-28T00:59:56;0.73;;;0.57;;
67514;SDS011;60646;55.802;37.032;2023-05-28T01:02:32;1.05;;;0.60;;
67514;SDS011;60646;55.802;37.032;2023-05-28T01:04:58;0.70;;;0.55;;
67514;SDS011;60646;55.802;37.032;2023-05-28T01:07:35;2.85;;;0.60;;
67514;SDS011;60646;55.802;37.032;2023-05-28T01:10:02;1.00;;;0.52;;
67514;SDS011;60646;55.802;37.032;2023-05-28T01:12:30;0.60;;;0.60;;
67514;SDS011;60646;55.802;37.032;2023-05-28T01:14:57;0.50;;;0.50;;
67514;SDS011;60646;55.802;37.032;2023-05-28T01:17:23;0.85;;;0.75;;
67514;SDS011;60646;55.802;37.032;2023-05-28T01:19:50;1.10;;;0.60;;
67514;SDS011;60646;55.802;37.032;2023-05-28T01:22:17;2.15;;;0.40;;
67514;SDS011;60646;55.802;37.032;2023-05-28T01:24:46;0.93;;;0.60;;
67514;SDS011;60646;55.802;37.032;2023-05-28T01:27:13;0.95;;;0.75;;
67514;SDS011;60646;55.802;37.032;2023-05-28T01:29:40;1.45;;;0.60;;
67514;SDS011;60646;55.802;37.032;2023-05-28T01:32:06;0.75;;;0.57;;
67514;SDS011;60646;55.802;37.032;2023-05-28T01:34:32;1.00;;;0.60;;
67514;SDS011;60646;55.802;37.032;2023-05-28T01:36:59;1.38;;;0.80;;
67514;SDS011;60646;55.802;37.032;2023-05-28T01:39:34;1.42;;;0.80;;
67514;SDS011;60646;55.802;37.032;2023-05-28T01:42:05;1.00;;;0.63;;
67514;SDS011;60646;55.802;37.032;2023-05-28T01:44:33;1.55;;;0.60;;
67514;SDS011;60646;55.802;37.032;2023-05-28T01:46:59;0.75;;;0.68;;
67514;SDS011;60646;55.802;37.032;2023-05-28T01:49:26;2.00;;;0.77;;
67514;SDS011;60646;55.802;37.032;2023-05-28T01:51:55;1.08;;;0.63;;
67514;SDS011;60646;55.802;37.032;2023-05-28T01:54:21;0.85;;;0.70;;
67514;SDS011;60646;55.802;37.032;2023-05-28T01:56:47;1.95;;;0.77;;
67514;SDS011;60646;55.802;37.032;2023-05-28T01:59:13;0.75;;;0.65;;
67514;SDS011;60646;55.802;37.032;2023-05-28T02:01:40;2.80;;;0.60;;
67514;SDS011;60646;55.802;37.032;2023-05-28T02:04:08;1.67;;;0.55;;
67514;SDS011;60646;55.802;37.032;2023-05-28T02:06:36;1.00;;;0.90;;
67514;SDS011;60646;55.802;37.032;2023-05-28T02:09:06;1.58;;;0.68;;
67514;SDS011;60646;55.802;37.032;2023-05-28T02:11:33;1.15;;;0.70;;
67514;SDS011;60646;55.802;37.032;2023-05-28T02:13:59;1.80;;;0.82;;
67514;SDS011;60646;55.802;37.032;2023-05-28T02:16:27;0.77;;;0.50;;
67514;SDS011;60646;55.802;37.032;2023-05-28T02:18:54;0.90;;;0.70;;
67514;SDS011;60646;55.802;37.032;2023-05-28T02:21:22;0.98;;;0.65;;
67514;SDS011;60646;55.802;37.032;2023-05-28T02:23:48;0.70;;;0.60;;
67514;SDS011;60646;55.802;37.032;2023-05-28T02:26:17;1.75;;;0.70;;
67514;SDS011;60646;55.802;37.032;2023-05-28T02:28:44;0.73;;;0.65;;
67514;SDS011;60646;55.802;37.032;2023-05-28T02:31:10;0.90;;;0.60;;
67514;SDS011;60646;55.802;37.032;2023-05-28T02:33:39;1.95;;;0.60;;
67514;SDS011;60646;55.802;37.032;2023-05-28T02:36:09;0.82;;;0.60;;
67514;SDS011;60646;55.802;37.032;2023-05-28T02:38:38;0.88;;;0.60;;
67514;SDS011;60646;55.802;37.032;2023-05-28T02:41:04;1.08;;;0.65;;
67514;SDS011;60646;55.802;37.032;2023-05-28T02:43:32;1.35;;;0.90;;
67514;SDS011;60646;55.802;37.032;2023-05-28T02:45:59;0.55;;;0.50;;
67514;SDS011;60646;55.802;37.032;2023-05-28T02:48:25;1.45;;;0.50;;
67514;SDS011;60646;55.802;37.032;2023-05-28T02:50:52;1.52;;;0.55;;
67514;SDS011;60646;55.802;37.032;2023-05-28T02:53:37;1.63;;;0.70;;
67514;SDS011;60646;55.802;37.032;2023-05-28T02:56:04;1.02;;;0.47;;
67514;SDS011;60646;55.802;37.032;2023-05-28T02:58:33;1.48;;;0.80;;
67514;SDS011;60646;55.802;37.032;2023-05-28T03:00:58;0.63;;;0.55;;
67514;SDS011;60646;55.802;37.032;2023-05-28T03:03:25;3.90;;;0.68;;
67514;SDS011;60646;55.802;37.032;2023-05-28T03:05:52;0.95;;;0.60;;
67514;SDS011;60646;55.802;37.032;2023-05-28T03:08:18;2.42;;;0.90;;
67514;SDS011;60646;55.802;37.032;2023-05-28T03:10:44;1.13;;;0.68;;
67514;SDS011;60646;55.802;37.032;2023-05-28T03:13:09;1.65;;;0.80;;
67514;SDS011;60646;55.802;37.032;2023-05-28T03:15:35;0.90;;;0.50;;
67514;SDS011;60646;55.802;37.032;2023-05-28T03:18:02;0.85;;;0.60;;
67514;SDS011;60646;55.802;37.032;2023-05-28T03:20:33;1.30;;;0.53;;
67514;SDS011;60646;55.802;37.032;2023-05-28T03:22:59;1.08;;;0.60;;
67514;SDS011;60646;55.802;37.032;2023-05-28T03:25:43;0.80;;;0.60;;
67514;SDS011;60646;55.802;37.032;2023-05-28T03:28:09;1.02;;;0.70;;
67514;SDS011;60646;55.802;37.032;2023-05-28T03:30:50;0.70;;;0.70;;
67514;SDS011;60646;55.802;37.032;2023-05-28T03:33:16;0.90;;;0.70;;
67514;SDS011;60646;55.802;37.032;2023-05-28T03:35:42;1.20;;;0.63;;
67514;SDS011;60646;55.802;37.032;2023-05-28T03:38:08;1.10;;;0.73;;
67514;SDS011;60646;55.802;37.032;2023-05-28T03:40:34;0.80;;;0.55;;
67514;SDS011;60646;55.802;37.032;2023-05-28T03:42:59;0.93;;;0.60;;
67514;SDS011;60646;55.802;37.032;2023-05-28T03:45:25;0.82;;;0.60;;
67514;SDS011;60646;55.802;37.032;2023-05-28T03:47:52;1.77;;;1.00;;
67514;SDS011;60646;55.802;37.032;2023-05-28T03:50:36;2.00;;;0.80;;
67514;SDS011;60646;55.802;37.032;2023-05-28T03:53:02;0.95;;;0.70;;
67514;SDS011;60646;55.802;37.032;2023-05-28T03:55:28;1.08;;;0.70;;
67514;SDS011;60646;55.802;37.032;2023-05-28T03:57:54;2.08;;;0.73;;
67514;SDS011;60646;55.802;37.032;2023-05-28T04:00:20;2.22;;;0.80;;
67514;SDS011;60646;55.802;37.032;2023-05-28T04:02:47;0.95;;;0.70;;
67514;SDS011;60646;55.802;37.032;2023-05-28T04:05:14;3.88;;;0.70;;
67514;SDS011;60646;55.802;37.032;2023-05-28T04:07:40;1.23;;;0.68;;
67514;SDS011;60646;55.802;37.032;2023-05-28T04:10:06;1.33;;;0.90;;
67514;SDS011;60646;55.802;37.032;2023-05-28T04:12:33;2.17;;;0.80;;
67514;SDS011;60646;55.802;37.032;2023-05-28T04:15:00;1.00;;;0.70;;
67514;SDS011;60646;55.802;37.032;2023-05-28T04:17:26;1.92;;;0.68;;
67514;SDS011;60646;55.802;37.032;2023-05-28T04:19:53;1.25;;;0.70;;
67514;SDS011;60646;55.802;37.032;2023-05-28T04:22:20;1.75;;;0.80;;
67514;SDS011;60646;55.802;37.032;2023-05-28T04:24:49;2.03;;;0.80;;
67514;SDS011;60646;55.802;37.032;2023-05-28T04:27:21;1.50;;;1.30;;
67514;SDS011;60646;55.802;37.032;2023-05-28T04:29:49;1.02;;;0.70;;
67514;SDS011;60646;55.802;37.032;2023-05-28T04:32:17;1.05;;;0.70;;
67514;SDS011;60646;55.802;37.032;2023-05-28T04:34:44;2.00;;;1.02;;
67514;SDS011;60646;55.802;37.032;2023-05-28T04:37:10;1.55;;;0.80;;
67514;SDS011;60646;55.802;37.032;2023-05-28T04:39:36;1.15;;;0.63;;
67514;SDS011;60646;55.802;37.032;2023-05-28T04:42:03;4.32;;;0.82;;
67514;SDS011;60646;55.802;37.032;2023-05-28T04:44:33;1.40;;;0.80;;
67514;SDS011;60646;55.802;37.032;2023-05-28T04:47:02;1.30;;;0.70;;
67514;SDS011;60646;55.802;37.032;2023-05-28T04:49:29;1.10;;;0.70;;
67514;SDS011;60646;55.802;37.032;2023-05-28T04:51:57;1.10;;;0.70;;
67514;SDS011;60646;55.802;37.032;2023-05-28T04:54:23;1.60;;;0.70;;
67514;SDS011;60646;55.802;37.032;2023-05-28T04:56:49;1.17;;;0.80;;
67514;SDS011;60646;55.802;37.032;2023-05-28T04:59:33;1.13;;;0.77;;
67514;SDS011;60646;55.802;37.032;2023-05-28T05:02:01;1.83;;;0.70;;
67514;SDS011;60646;55.802;37.032;2023-05-28T05:04:27;1.20;;;0.65;;
67514;SDS011;60646;55.802;37.032;2023-05-28T05:06:54;2.67;;;0.80;;
67514;SDS011;60646;55.802;37.032;2023-05-28T05:09:20;1.73;;;0.65;;
67514;SDS011;60646;55.802;37.032;2023-05-28T05:11:48;1.25;;;0.57;;
67514;SDS011;60646;55.802;37.032;2023-05-28T05:14:14;0.80;;;0.60;;
67514;SDS011;60646;55.802;37.032;2023-05-28T05:16:40;1.45;;;0.60;;
67514;SDS011;60646;55.802;37.032;2023-05-28T05:19:06;1.65;;;0.70;;
67514;SDS011;60646;55.802;37.032;2023-05-28T05:21:32;0.60;;;0.50;;
67514;SDS011;60646;55.802;37.032;2023-05-28T05:23:58;1.02;;;0.68;;
67514;SDS011;60646;55.802;37.032;2023-05-28T05:26:43;0.60;;;0.50;;
67514;SDS011;60646;55.802;37.032;2023-05-28T05:29:27;1.33;;;0.63;;
67514;SDS011;60646;55.802;37.032;2023-05-28T05:31:53;1.90;;;0.50;;
67514;SDS011;60646;55.802;37.032;2023-05-28T05:34:19;1.15;;;0.60;;
67514;SDS011;60646;55.802;37.032;2023-05-28T05:36:51;1.10;;;0.50;;
67514;SDS011;60646;55.802;37.032;2023-05-28T05:39:39;0.82;;;0.70;;
67514;SDS011;60646;55.802;37.032;2023-05-28T05:45:08;0.75;;;0.75;;
67514;SDS011;60646;55.802;37.032;2023-05-28T05:47:36;1.85;;;0.82;;
67514;SDS011;60646;55.802;37.032;2023-05-28T05:50:05;1.33;;;0.65;;
67514;SDS011;60646;55.802;37.032;2023-05-28T05:52:31;1.08;;;0.70;;
67514;SDS011;60646;55.802;37.032;2023-05-28T05:54:58;2.63;;;0.75;;
67514;SDS011;60646;55.802;37.032;2023-05-28T05:57:24;1.23;;;0.80;;
67514;SDS011;60646;55.802;37.032;2023-05-28T05:59:57;0.77;;;0.50;;
67514;SDS011;60646;55.802;37.032;2023-05-28T06:02:25;3.17;;;0.77;;
67514;SDS011;60646;55.802;37.032;2023-05-28T06:04:51;3.65;;;1.65;;
67514;SDS011;60646;55.802;37.032;2023-05-28T06:07:32;1.25;;;0.60;;
67514;SDS011;60646;55.802;37.032;2023-05-28T06:10:36;0.98;;;0.80;;
67514;SDS011;60646;55.802;37.032;2023-05-28T06:13:02;1.80;;;0.85;;
67514;SDS011;60646;55.802;37.032;2023-05-28T06:15:29;1.58;;;0.93;;
67514;SDS011;60646;55.802;37.032;2023-05-28T06:17:56;2.75;;;0.90;;
67514;SDS011;60646;55.802;37.032;2023-05-28T06:20:22;4.53;;;0.90;;
67514;SDS011;60646;55.802;37.032;2023-05-28T06:23:01;1.23;;;0.90;;
67514;SDS011;60646;55.802;37.032;2023-05-28T06:25:27;1.45;;;0.90;;
67514;SDS011;60646;55.802;37.032;2023-05-28T06:27:54;1.20;;;0.80;;
67514;SDS011;60646;55.802;37.032;2023-05-28T06:30:27;1.20;;;0.70;;
67514;SDS011;60646;55.802;37.032;2023-05-28T06:32:53;2.70;;;0.90;;
67514;SDS011;60646;55.802;37.032;2023-05-28T06:35:18;1.50;;;0.82;;
67514;SDS011;60646;55.802;37.032;2023-05-28T06:37:45;1.95;;;0.70;;
67514;SDS011;60646;55.802;37.032;2023-05-28T06:40:11;1.55;;;0.77;;
67514;SDS011;60646;55.802;37.032;2023-05-28T06:42:37;1.23;;;0.80;;
67514;SDS011;60646;55.802;37.032;2023-05-28T06:45:18;1.42;;;0.70;;
67514;SDS011;60646;55.802;37.032;2023-05-28T06:47:45;1.02;;;0.70;;
67514;SDS011;60646;55.802;37.032;2023-05-28T06:50:11;1.02;;;0.70;;
67514;SDS011;60646;55.802;37.032;2023-05-28T06:52:38;1.33;;;1.00;;
67514;SDS011;60646;55.802;37.032;2023-05-28T06:55:05;2.08;;;0.80;;
67514;SDS011;60646;55.802;37.032;2023-05-28T06:57:33;1.38;;;0.68;;
67514;SDS011;60646;55.802;37.032;2023-05-28T07:00:10;1.25;;;0.77;;
67514;SDS011;60646;55.802;37.032;2023-05-28T07:02:54;1.48;;;0.77;;
67514;SDS011;60646;55.802;37.032;2023-05-28T07:05:41;1.77;;;0.73;;
67514;SDS011;60646;55.802;37.032;2023-05-28T07:08:08;0.95;;;0.60;;
67514;SDS011;60646;55.802;37.032;2023-05-28T07:10:35;1.90;;;0.70;;
67514;SDS011;60646;55.802;37.032;2023-05-28T07:13:01;1.00;;;0.80;;
67514;SDS011;60646;55.802;37.032;2023-05-28T07:15:27;1.05;;;0.70;;
67514;SDS011;60646;55.802;37.032;2023-05-28T07:17:53;1.63;;;0.60;;
67514;SDS011;60646;55.802;37.032;2023-05-28T07:20:19;2.78;;;0.68;;
67514;SDS011;60646;55.802;37.032;2023-05-28T07:22:52;1.35;;;0.70;;
67514;SDS011;60646;55.802;37.032;2023-05-28T07:25:18;0.90;;;0.65;;
67514;SDS011;60646;55.802;37.032;2023-05-28T07:27:45;1.15;;;0.70;;
67514;SDS011;60646;55.802;37.032;2023-05-28T07:30:16;0.90;;;0.65;;
67514;SDS011;60646;55.802;37.032;2023-05-28T07:32:42;1.80;;;0.73;;
67514;SDS011;60646;55.802;37.032;2023-05-28T07:35:09;1.00;;;0.52;;
67514;SDS011;60646;55.802;37.032;2023-05-28T07:37:36;1.05;;;0.75;;
67514;SDS011;60646;55.802;37.032;2023-05-28T07:40:04;3.88;;;0.75;;
67514;SDS011;60646;55.802;37.032;2023-05-28T07:42:32;1.27;;;0.75;;
67514;SDS011;60646;55.802;37.032;2023-05-28T07:45:02;0.98;;;0.70;;
67514;SDS011;60646;55.802;37.032;2023-05-28T07:47:30;1.05;;;0.80;;
67514;SDS011;60646;55.802;37.032;2023-05-28T07:50:31;2.70;;;0.75;;
67514;SDS011;60646;55.802;37.032;2023-05-28T07:53:12;1.15;;;0.85;;
67514;SDS011;60646;55.802;37.032;2023-05-28T07:55:39;1.10;;;0.60;;
67514;SDS011;60646;55.802;37.032;2023-05-28T07:58:06;3.28;;;1.15;;
67514;SDS011;60646;55.802;37.032;2023-05-28T08:00:32;2.00;;;0.80;;
67514;SDS011;60646;55.802;37.032;2023-05-28T08:03:03;1.98;;;0.77;;
67514;SDS011;60646;55.802;37.032;2023-05-28T08:05:40;1.15;;;0.90;;
67514;SDS011;60646;55.802;37.032;2023-05-28T08:08:06;1.15;;;1.00;;
67514;SDS011;60646;55.802;37.032;2023-05-28T08:10:34;1.23;;;0.88;;
67514;SDS011;60646;55.802;37.032;2023-05-28T08:13:00;0.80;;;0.70;;
67514;SDS011;60646;55.802;37.032;2023-05-28T08:15:27;0.80;;;0.63;;
67514;SDS011;60646;55.802;37.032;2023-05-28T08:17:55;0.82;;;0.60;;
67514;SDS011;60646;55.802;37.032;2023-05-28T08:20:23;0.98;;;0.75;;
67514;SDS011;60646;55.802;37.032;2023-05-28T08:22:57;1.05;;;0.70;;
67514;SDS011;60646;55.802;37.032;2023-05-28T08:25:26;1.13;;;0.65;;
67514;SDS011;60646;55.802;37.032;2023-05-28T08:28:00;1.45;;;0.90;;
67514;SDS011;60646;55.802;37.032;2023-05-28T08:30:26;1.48;;;0.85;;
67514;SDS011;60646;55.802;37.032;2023-05-28T08:33:05;1.23;;;0.60;;
67514;SDS011;60646;55.802;37.032;2023-05-28T08:35:31;1.20;;;0.70;;
67514;SDS011;60646;55.802;37.032;2023-05-28T08:37:58;1.50;;;0.90;;
67514;SDS011;60646;55.802;37.032;2023-05-28T08:40:46;1.73;;;0.90;;
67514;SDS011;60646;55.802;37.032;2023-05-28T08:43:15;1.08;;;0.90;;
67514;SDS011;60646;55.802;37.032;2023-05-28T08:45:41;1.73;;;1.20;;
67514;SDS011;60646;55.802;37.032;2023-05-28T08:48:08;1.10;;;0.80;;
67514;SDS011;60646;55.802;37.032;2023-05-28T08:50:37;1.75;;;1.02;;
67514;SDS011;60646;55.802;37.032;2023-05-28T08:53:32;1.52;;;0.90;;
67514;SDS011;60646;55.802;37.032;2023-05-28T08:56:24;1.13;;;0.90;;
67514;SDS011;60646;55.802;37.032;2023-05-28T09:01:36;1.92;;;0.80;;
67514;SDS011;60646;55.802;37.032;2023-05-28T09:04:08;1.73;;;1.10;;
67514;SDS011;60646;55.802;37.032;2023-05-28T09:06:54;2.15;;;1.00;;
67514;SDS011;60646;55.802;37.032;2023-05-28T09:09:39;1.67;;;0.80;;
67514;SDS011;60646;55.802;37.032;2023-05-28T09:14:57;2.20;;;1.00;;
67514;SDS011;60646;55.802;37.032;2023-05-28T09:17:36;1.60;;;1.00;;
67514;SDS011;60646;55.802;37.032;2023-05-28T09:20:12;2.08;;;0.90;;
67514;SDS011;60646;55.802;37.032;2023-05-28T09:22:40;1.90;;;1.27;;
67514;SDS011;60646;55.802;37.032;2023-05-28T09:25:24;2.45;;;0.85;;
67514;SDS011;60646;55.802;37.032;2023-05-28T09:28:11;3.22;;;1.10;;
67514;SDS011;60646;55.802;37.032;2023-05-28T09:30:39;1.75;;;1.15;;
67514;SDS011;60646;55.802;37.032;2023-05-28T09:33:07;1.23;;;0.70;;
67514;SDS011;60646;55.802;37.032;2023-05-28T09:35:34;1.90;;;0.88;;
67514;SDS011;60646;55.802;37.032;2023-05-28T09:38:08;1.92;;;0.93;;
67514;SDS011;60646;55.802;37.032;2023-05-28T09:40:37;2.60;;;1.10;;
67514;SDS011;60646;55.802;37.032;2023-05-28T09:43:05;1.77;;;1.00;;
67514;SDS011;60646;55.802;37.032;2023-05-28T09:45:33;2.67;;;1.20;;
67514;SDS011;60646;55.802;37.032;2023-05-28T09:48:26;2.38;;;1.40;;
67514;SDS011;60646;55.802;37.032;2023-05-28T09:50:51;2.17;;;1.23;;
67514;SDS011;60646;55.802;37.032;2023-05-28T09:53:18;3.45;;;1.13;;
67514;SDS011;60646;55.802;37.032;2023-05-28T09:55:45;1.80;;;1.10;;
67514;SDS011;60646;55.802;37.032;2023-05-28T09:58:14;2.40;;;1.38;;
67514;SDS011;60646;55.802;37.032;2023-05-28T10:00:42;1.00;;;0.90;;
67514;SDS011;60646;55.802;37.032;2023-05-28T10:06:14;2.60;;;0.95;;
67514;SDS011;60646;55.802;37.032;2023-05-28T10:08:50;2.90;;;1.30;;
67514;SDS011;60646;55.802;37.032;2023-05-28T10:11:19;2.53;;;1.08;;
67514;SDS011;60646;55.802;37.032;2023-05-28T10:13:48;2.22;;;1.38;;
67514;SDS011;60646;55.802;37.032;2023-05-28T10:16:14;3.47;;;1.00;;
67514;SDS011;60646;55.802;37.032;2023-05-28T10:18:40;1.08;;;0.82;;
67514;SDS011;60646;55.802;37.032;2023-05-28T10:21:07;1.75;;;0.88;;
67514;SDS011;60646;55.802;37.032;2023-05-28T10:23:34;1.50;;;0.88;;
67514;SDS011;60646;55.802;37.032;2023-05-28T10:26:01;2.25;;;0.70;;
67514;SDS011;60646;55.802;37.032;2023-05-28T10:28:31;1.95;;;0.95;;
67514;SDS011;60646;55.802;37.032;2023-05-28T10:31:04;2.20;;;1.00;;
67514;SDS011;60646;55.802;37.032;2023-05-28T10:33:41;2.80;;;1.10;;
67514;SDS011;60646;55.802;37.032;2023-05-28T10:36:10;2.60;;;1.10;;
67514;SDS011;60646;55.802;37.032;2023-05-28T10:38:41;9.13;;;1.17;;
67514;SDS011;60646;55.802;37.032;2023-05-28T10:41:11;2.00;;;0.90;;
67514;SDS011;60646;55.802;37.032;2023-05-28T10:43:45;1.88;;;1.00;;
67514;SDS011;60646;55.802;37.032;2023-05-28T10:59:38;1.38;;;0.90;;
67514;SDS011;60646;55.802;37.032;2023-05-28T11:02:06;1.00;;;0.70;;
67514;SDS011;60646;55.802;37.032;2023-05-28T11:04:33;0.85;;;0.60;;
67514;SDS011;60646;55.802;37.032;2023-05-28T11:07:00;1.85;;;0.90;;
67514;SDS011;60646;55.802;37.032;2023-05-28T11:09:28;3.50;;;0.88;;
67514;SDS011;60646;55.802;37.032;2023-05-28T11:11:59;3.58;;;0.90;;
67514;SDS011;60646;55.802;37.032;2023-05-28T11:14:29;2.78;;;1.00;;
67514;SDS011;60646;55.802;37.032;2023-05-28T11:17:05;3.55;;;1.35;;
67514;SDS011;60646;55.802;37.032;2023-05-28T11:19:50;2.13;;;1.05;;
67514;SDS011;60646;55.802;37.032;2023-05-28T11:22:17;1.60;;;0.80;;
67514;SDS011;60646;55.802;37.032;2023-05-28T11:24:51;1.08;;;0.70;;
67514;SDS011;60646;55.802;37.032;2023-05-28T11:27:20;7.82;;;1.20;;
67514;SDS011;60646;55.802;37.032;2023-05-28T11:29:58;1.63;;;1.00;;
67514;SDS011;60646;55.802;37.032;2023-05-28T11:32:26;1.77;;;0.80;;
67514;SDS011;60646;55.802;37.032;2023-05-28T11:34:53;1.83;;;0.90;;
67514;SDS011;60646;55.802;37.032;2023-05-28T11:37:24;1.92;;;1.00;;
67514;SDS011;60646;55.802;37.032;2023-05-28T11:39:52;3.00;;;0.80;;
67514;SDS011;60646;55.802;37.032;2023-05-28T11:42:20;1.17;;;0.70;;
67514;SDS011;60646;55.802;37.032;2023-05-28T11:44:47;1.98;;;0.93;;
67514;SDS011;60646;55.802;37.032;2023-05-28T11:47:14;1.27;;;0.70;;
67514;SDS011;60646;55.802;37.032;2023-05-28T11:49:40;9.05;;;1.50;;
67514;SDS011;60646;55.802;37.032;2023-05-28T11:52:10;1.45;;;0.82;;
67514;SDS011;60646;55.802;37.032;2023-05-28T11:54:37;2.42;;;1.02;;
67514;SDS011;60646;55.802;37.032;2023-05-28T11:57:04;2.78;;;1.05;;
67514;SDS011;60646;55.802;37.032;2023-05-28T11:59:31;1.23;;;0.80;;
67514;SDS011;60646;55.802;37.032;2023-05-28T12:02:14;1.50;;;0.70;;
67514;SDS011;60646;55.802;37.032;2023-05-28T12:04:57;2.03;;;0.98;;
67514;SDS011;60646;55.802;37.032;2023-05-28T12:07:33;3.65;;;0.90;;
67514;SDS011;60646;55.802;37.032;2023-05-28T12:10:10;40.88;;;3.53;;
67514;SDS011;60646;55.802;37.032;2023-05-28T12:16:05;0.47;;;0.40;;
67514;SDS011;60646;55.802;37.032;2023-05-28T12:18:41;0.98;;;0.50;;
67514;SDS011;60646;55.802;37.032;2023-05-28T12:21:11;0.75;;;0.70;;
67514;SDS011;60646;55.802;37.032;2023-05-28T12:23:37;1.92;;;0.82;;
67514;SDS011;60646;55.802;37.032;2023-05-28T12:26:07;2.78;;;0.60;;
67514;SDS011;60646;55.802;37.032;2023-05-28T12:28:34;3.65;;;1.00;;
67514;SDS011;60646;55.802;37.032;2023-05-28T12:31:05;1.52;;;0.70;;
67514;SDS011;60646;55.802;37.032;2023-05-28T12:33:31;1.17;;;0.70;;
67514;SDS011;60646;55.802;37.032;2023-05-28T12:35:57;0.90;;;0.57;;
67514;SDS011;60646;55.802;37.032;2023-05-28T12:38:25;0.75;;;0.60;;
67514;SDS011;60646;55.802;37.032;2023-05-28T12:40:51;1.85;;;0.70;;
67514;SDS011;60646;55.802;37.032;2023-05-28T12:43:18;2.03;;;0.90;;
67514;SDS011;60646;55.802;37.032;2023-05-28T12:45:43;1.58;;;1.00;;
67514;SDS011;60646;55.802;37.032;2023-05-28T12:48:09;1.10;;;1.00;;
67514;SDS011;60646;55.802;37.032;2023-05-28T12:50:35;2.22;;;0.88;;
67514;SDS011;60646;55.802;37.032;2023-05-28T12:53:01;1.10;;;0.70;;
67514;SDS011;60646;55.802;37.032;2023-05-28T12:55:33;1.30;;;0.90;;
67514;SDS011;60646;55.802;37.032;2023-05-28T12:57:59;2.42;;;0.80;;
67514;SDS011;60646;55.802;37.032;2023-05-28T13:00:25;1.85;;;1.10;;
67514;SDS011;60646;55.802;37.032;2023-05-28T13:02:51;2.58;;;1.33;;
67514;SDS011;60646;55.802;37.032;2023-05-28T13:05:16;3.13;;;1.88;;
67514;SDS011;60646;55.802;37.032;2023-05-28T13:07:43;3.28;;;1.30;;
67514;SDS011;60646;55.802;37.032;2023-05-28T13:10:12;3.45;;;1.00;;
67514;SDS011;60646;55.802;37.032;2023-05-28T13:12:38;2.90;;;1.17;;
67514;SDS011;60646;55.802;37.032;2023-05-28T13:15:04;2.88;;;1.60;;
67514;SDS011;60646;55.802;37.032;2023-05-28T13:17:31;1.63;;;0.93;;
67514;SDS011;60646;55.802;37.032;2023-05-28T13:19:57;2.10;;;1.00;;
67514;SDS011;60646;55.802;37.032;2023-05-28T13:22:24;1.48;;;0.82;;
67514;SDS011;60646;55.802;37.032;2023-05-28T13:24:49;1.73;;;0.88;;
67514;SDS011;60646;55.802;37.032;2023-05-28T13:27:15;1.67;;;0.70;;
67514;SDS011;60646;55.802;37.032;2023-05-28T13:29:41;1.95;;;0.90;;
67514;SDS011;60646;55.802;37.032;2023-05-28T13:32:07;1.27;;;0.70;;
67514;SDS011;60646;55.802;37.032;2023-05-28T13:34:33;1.98;;;0.90;;
67514;SDS011;60646;55.802;37.032;2023-05-28T13:36:59;2.03;;;0.70;;
67514;SDS011;60646;55.802;37.032;2023-05-28T13:39:25;1.52;;;0.70;;
67514;SDS011;60646;55.802;37.032;2023-05-28T13:41:51;1.45;;;0.80;;
67514;SDS011;60646;55.802;37.032;2023-05-28T13:44:17;2.17;;;0.85;;
67514;SDS011;60646;55.802;37.032;2023-05-28T13:46:44;2.38;;;1.25;;
67514;SDS011;60646;55.802;37.032;2023-05-28T13:49:09;2.47;;;1.30;;
67514;SDS011;60646;55.802;37.032;2023-05-28T13:51:36;1.63;;;0.80;;
67514;SDS011;60646;55.802;37.032;2023-05-28T13:54:05;8.73;;;4.50;;
67514;SDS011;60646;55.802;37.032;2023-05-28T13:56:31;16.67;;;8.60;;
67514;SDS011;60646;55.802;37.032;2023-05-28T13:58:57;8.07;;;4.95;;
67514;SDS011;60646;55.802;37.032;2023-05-28T14:01:23;5.28;;;3.22;;
67514;SDS011;60646;55.802;37.032;2023-05-28T14:03:49;3.42;;;1.50;;
67514;SDS011;60646;55.802;37.032;2023-05-28T14:06:15;2.38;;;1.20;;
67514;SDS011;60646;55.802;37.032;2023-05-28T14:08:41;1.60;;;1.10;;
67514;SDS011;60646;55.802;37.032;2023-05-28T14:11:07;1.25;;;0.85;;
67514;SDS011;60646;55.802;37.032;2023-05-28T14:13:32;1.02;;;0.85;;
67514;SDS011;60646;55.802;37.032;2023-05-28T14:15:58;2.67;;;0.98;;
67514;SDS011;60646;55.802;37.032;2023-05-28T14:18:24;2.25;;;1.00;;
67514;SDS011;60646;55.802;37.032;2023-05-28T14:20:50;1.60;;;1.00;;
67514;SDS011;60646;55.802;37.032;2023-05-28T14:23:16;2.22;;;0.95;;
67514;SDS011;60646;55.802;37.032;2023-05-28T14:25:42;1.90;;;1.13;;
67514;SDS011;60646;55.802;37.032;2023-05-28T14:28:08;3.08;;;1.00;;
67514;SDS011;60646;55.802;37.032;2023-05-28T14:30:34;7.63;;;1.08;;
67514;SDS011;60646;55.802;37.032;2023-05-28T14:32:59;3.67;;;1.00;;
67514;SDS011;60646;55.802;37.032;2023-05-28T14:35:25;1.73;;;0.98;;
67514;SDS011;60646;55.802;37.032;2023-05-28T14:37:51;2.03;;;1.00;;
67514;SDS011;60646;55.802;37.032;2023-05-28T14:40:20;1.73;;;1.10;;
67514;SDS011;60646;55.802;37.032;2023-05-28T14:42:46;1.42;;;0.82;;
67514;SDS011;60646;55.802;37.032;2023-05-28T14:45:13;1.58;;;0.90;;
67514;SDS011;60646;55.802;37.032;2023-05-28T14:47:39;1.42;;;0.70;;
67514;SDS011;60646;55.802;37.032;2023-05-28T14:50:08;1.38;;;0.90;;
67514;SDS011;60646;55.802;37.032;2023-05-28T14:52:34;3.58;;;0.95;;
67514;SDS011;60646;55.802;37.032;2023-05-28T14:55:00;2.15;;;0.73;;
67514;SDS011;60646;55.802;37.032;2023-05-28T14:57:26;1.20;;;0.80;;
67514;SDS011;60646;55.802;37.032;2023-05-28T14:59:53;1.02;;;0.80;;
67514;SDS011;60646;55.802;37.032;2023-05-28T15:02:23;1.17;;;0.88;;
67514;SDS011;60646;55.802;37.032;2023-05-28T15:04:49;0.77;;;0.57;;
67514;SDS011;60646;55.802;37.032;2023-05-28T15:07:15;2.97;;;0.68;;
67514;SDS011;60646;55.802;37.032;2023-05-28T15:09:41;1.02;;;0.70;;
67514;SDS011;60646;55.802;37.032;2023-05-28T15:12:07;0.88;;;0.60;;